Time;durP1;ratioP1;P1;durP2;ratioP2;P2;SDS_P1;SDS_P2;PMS_P1;PMS_P2;Temp;Humidity;BMP_temperature;BMP_pressure;BME280_temperature;BME280_humidity;BME280_pressure;Samples;Min_cycle;Max_cycle;Signal;HPM_P1;HPM_P2
2022/04/11 00:02:16;;;;;;;9.43;6.20;;;6.70;99.90;;;;;;5052212;28;20082;-75
2022/04/11 00:04:41;;;;;;;8.93;5.93;;;6.70;99.90;;;;;;5052581;28;20350;-75
2022/04/11 00:07:07;;;;;;;8.98;6.30;;;6.70;99.90;;;;;;5051441;28;20029;-77
2022/04/11 00:09:32;;;;;;;15.77;7.82;;;6.60;99.90;;;;;;5052615;28;20028;-74
2022/04/11 00:11:58;;;;;;;7.22;5.45;;;6.70;99.90;;;;;;5057612;28;20017;-76
2022/04/11 00:14:24;;;;;;;10.55;6.15;;;6.60;99.90;;;;;;5052246;28;20299;-75
2022/04/11 00:16:50;;;;;;;9.30;6.75;;;6.60;99.90;;;;;;5052390;28;20056;-76
2022/04/11 00:19:16;;;;;;;8.85;5.93;;;6.60;99.90;;;;;;5052313;28;20048;-76
2022/04/11 00:21:41;;;;;;;6.93;5.13;;;6.60;99.90;;;;;;5052562;28;20028;-77
2022/04/11 00:24:07;;;;;;;10.40;5.38;;;6.60;99.90;;;;;;5052242;28;20021;-76
2022/04/11 00:26:33;;;;;;;12.38;6.38;;;6.60;99.90;;;;;;5051505;28;20092;-76
2022/04/11 00:28:59;;;;;;;9.63;5.50;;;6.60;99.90;;;;;;5052179;28;20515;-76
2022/04/11 00:31:25;;;;;;;11.05;6.22;;;6.60;99.90;;;;;;5051591;28;20029;-75
2022/04/11 00:33:50;;;;;;;11.23;5.88;;;6.60;99.90;;;;;;5051552;28;20027;-76
2022/04/11 00:36:16;;;;;;;8.98;5.95;;;6.60;99.90;;;;;;5051889;28;20056;-77
2022/04/11 00:38:41;;;;;;;13.70;6.28;;;6.50;99.90;;;;;;5052002;28;20033;-75
2022/04/11 00:41:07;;;;;;;8.77;6.22;;;6.60;99.90;;;;;;5051103;28;20021;-76
2022/04/11 00:43:38;;;;;;;9.70;5.80;;;6.60;99.90;;;;;;5051932;28;20020;-75
2022/04/11 00:46:05;;;;;;;10.68;6.20;;;6.60;99.90;;;;;;5051980;28;20043;-75
2022/04/11 00:48:30;;;;;;;8.60;6.07;;;6.60;99.90;;;;;;5051241;28;20033;-75
2022/04/11 00:51:14;;;;;;;9.13;6.45;;;6.60;99.90;;;;;;5051879;28;20036;-75
2022/04/11 00:53:42;;;;;;;8.63;5.82;;;6.60;99.90;;;;;;5051717;28;20021;-75
2022/04/11 00:56:11;;;;;;;11.38;5.72;;;6.60;99.90;;;;;;5050761;28;20029;-77
2022/04/11 00:58:38;;;;;;;7.47;5.55;;;6.70;99.90;;;;;;5052050;28;20025;-77
2022/04/11 01:01:05;;;;;;;10.15;6.00;;;6.60;99.90;;;;;;5051743;28;20477;-77
2022/04/11 01:03:32;;;;;;;8.75;5.47;;;6.60;99.90;;;;;;5051094;28;20021;-76
2022/04/11 01:05:57;;;;;;;8.52;5.70;;;6.60;99.90;;;;;;5051815;28;20354;-75
2022/04/11 01:08:23;;;;;;;10.75;6.78;;;6.70;99.90;;;;;;5051291;28;20060;-75
2022/04/11 01:10:48;;;;;;;7.85;5.63;;;6.60;99.90;;;;;;5052830;28;20263;-75
2022/04/11 01:13:15;;;;;;;8.23;6.07;;;6.60;99.90;;;;;;5055866;28;20029;-76
2022/04/11 01:15:41;;;;;;;7.32;5.85;;;6.60;99.90;;;;;;5055270;28;20032;-76
2022/04/11 01:18:06;;;;;;;8.52;6.00;;;6.60;99.90;;;;;;5055819;28;20466;-75
2022/04/11 01:20:32;;;;;;;7.20;6.35;;;6.60;99.90;;;;;;5058050;28;20025;-76
2022/04/11 01:22:58;;;;;;;9.27;5.78;;;6.60;99.90;;;;;;5055594;28;20029;-77
2022/04/11 01:25:24;;;;;;;8.90;6.22;;;6.60;99.90;;;;;;5055167;28;20044;-76
2022/04/11 01:27:49;;;;;;;12.23;6.93;;;6.60;99.90;;;;;;5055766;28;20021;-77
2022/04/11 01:30:17;;;;;;;12.27;6.60;;;6.50;99.90;;;;;;5054619;28;20037;-76
2022/04/11 01:32:43;;;;;;;8.10;5.97;;;6.50;99.90;;;;;;5055602;28;20025;-76
2022/04/11 01:35:26;;;;;;;6.40;5.70;;;6.50;99.90;;;;;;5055175;28;20029;-77
2022/04/11 01:37:52;;;;;;;8.18;6.18;;;6.50;99.90;;;;;;5054725;28;20029;-76
2022/04/11 01:40:18;;;;;;;9.13;6.25;;;6.50;99.90;;;;;;5055027;28;20469;-76
2022/04/11 01:42:44;;;;;;;12.07;6.28;;;6.40;99.90;;;;;;5065045;28;20097;-77
2022/04/11 01:45:11;;;;;;;10.75;6.85;;;6.40;99.90;;;;;;5056037;28;20033;-77
2022/04/11 01:47:38;;;;;;;8.20;5.55;;;6.40;99.90;;;;;;5055128;28;20423;-77
2022/04/11 01:50:04;;;;;;;7.38;5.75;;;6.40;99.90;;;;;;5055044;28;20041;-77
2022/04/11 01:52:30;;;;;;;10.40;6.30;;;6.50;99.90;;;;;;5054178;28;20036;-77
2022/04/11 01:54:55;;;;;;;11.15;5.63;;;6.40;99.90;;;;;;5054869;28;20025;-76
2022/04/11 01:57:21;;;;;;;11.40;6.32;;;6.40;99.90;;;;;;5054996;28;20021;-77
2022/04/11 01:59:46;;;;;;;7.88;6.35;;;6.40;99.90;;;;;;5054181;28;20017;-76
2022/04/11 02:02:12;;;;;;;10.60;6.63;;;6.40;99.90;;;;;;5054504;28;20036;-77
2022/04/11 02:04:37;;;;;;;9.20;6.40;;;6.40;99.90;;;;;;5055472;28;20067;-77
2022/04/11 02:07:03;;;;;;;9.35;6.22;;;6.30;99.90;;;;;;5059011;28;20021;-77
2022/04/11 02:09:29;;;;;;;10.05;6.30;;;6.30;99.90;;;;;;5054595;28;20052;-77
2022/04/11 02:11:54;;;;;;;11.88;6.68;;;6.30;99.90;;;;;;5054536;28;20025;-78
2022/04/11 02:14:20;;;;;;;8.15;5.72;;;6.30;99.90;;;;;;5054250;28;20354;-77
2022/04/11 02:16:45;;;;;;;6.28;5.68;;;6.20;99.90;;;;;;5054698;28;20104;-77
2022/04/11 02:19:11;;;;;;;8.15;6.38;;;6.20;99.90;;;;;;5053606;28;20114;-76
2022/04/11 02:21:36;;;;;;;9.93;6.70;;;6.20;99.90;;;;;;5053293;28;20045;-76
2022/04/11 02:24:02;;;;;;;7.88;7.07;;;6.10;99.90;;;;;;5054440;28;20547;-77
2022/04/11 02:26:27;;;;;;;9.27;6.35;;;6.10;99.90;;;;;;5053902;28;20028;-77
2022/04/11 02:28:53;;;;;;;9.82;6.47;;;6.10;99.90;;;;;;5054364;28;20465;-76
2022/04/11 02:31:18;;;;;;;10.43;6.28;;;6.00;99.90;;;;;;5054171;28;20037;-76
2022/04/11 02:33:44;;;;;;;6.90;6.00;;;6.00;99.90;;;;;;5053846;28;20029;-76
2022/04/11 02:36:09;;;;;;;11.60;6.53;;;5.90;99.90;;;;;;5053914;28;20051;-76
2022/04/11 02:38:35;;;;;;;8.00;6.13;;;5.90;99.90;;;;;;5054827;28;20025;-76
2022/04/11 02:41:00;;;;;;;10.73;7.03;;;5.80;99.90;;;;;;5053728;28;20033;-76
2022/04/11 02:43:26;;;;;;;11.98;7.07;;;5.80;99.90;;;;;;5054011;28;20504;-76
2022/04/11 02:45:52;;;;;;;7.20;6.15;;;5.80;99.90;;;;;;5054175;28;20495;-76
2022/04/11 02:48:17;;;;;;;10.88;6.55;;;5.70;99.90;;;;;;5053007;28;20048;-77
2022/04/11 02:50:43;;;;;;;6.68;5.97;;;5.70;99.90;;;;;;5053878;28;20110;-75
2022/04/11 02:53:08;;;;;;;8.13;6.85;;;5.60;99.90;;;;;;5053706;28;20017;-76
2022/04/11 02:55:34;;;;;;;9.35;6.70;;;5.60;99.90;;;;;;5053425;28;20109;-76
2022/04/11 02:57:59;;;;;;;8.65;7.35;;;5.60;99.90;;;;;;5053958;28;20388;-76
2022/04/11 03:00:25;;;;;;;10.23;7.63;;;5.60;99.90;;;;;;5053415;28;20538;-77
2022/04/11 03:02:52;;;;;;;9.95;6.57;;;5.60;99.90;;;;;;5053293;28;20055;-76
2022/04/11 03:05:17;;;;;;;6.82;6.22;;;5.50;99.90;;;;;;5053192;28;20111;-74
2022/04/11 03:07:43;;;;;;;7.97;6.95;;;5.50;99.90;;;;;;5053720;28;20077;-77
2022/04/11 03:10:09;;;;;;;7.35;6.43;;;5.40;99.90;;;;;;5052849;28;20051;-75
2022/04/11 03:12:35;;;;;;;9.02;6.65;;;5.50;99.90;;;;;;5053899;28;20068;-76
2022/04/11 03:15:01;;;;;;;8.13;7.03;;;5.50;99.90;;;;;;5054036;28;20045;-77
2022/04/11 03:17:26;;;;;;;10.77;7.40;;;5.50;99.90;;;;;;5052488;28;20075;-76
2022/04/11 03:19:52;;;;;;;10.18;7.30;;;5.40;99.90;;;;;;5053432;28;20028;-77
2022/04/11 03:22:17;;;;;;;7.78;6.93;;;5.40;99.90;;;;;;5052576;28;20017;-76
2022/04/11 03:24:43;;;;;;;10.15;7.13;;;5.40;99.90;;;;;;5053368;28;20025;-77
2022/04/11 03:27:08;;;;;;;7.22;6.45;;;5.40;99.90;;;;;;5053105;28;20025;-76
2022/04/11 03:29:34;;;;;;;13.18;7.78;;;5.40;99.90;;;;;;5052648;28;20070;-77
2022/04/11 03:31:59;;;;;;;11.98;7.50;;;5.40;99.90;;;;;;5053272;28;20033;-76
2022/04/11 03:34:25;;;;;;;9.10;8.02;;;5.30;99.90;;;;;;5052366;28;20017;-76
2022/04/11 03:36:53;;;;;;;9.10;7.40;;;5.30;99.90;;;;;;5052492;28;20048;-75
2022/04/11 03:39:19;;;;;;;8.75;7.38;;;5.30;99.90;;;;;;5056089;28;20025;-76
2022/04/11 03:41:44;;;;;;;7.45;6.65;;;5.30;99.90;;;;;;5054344;28;20032;-76
2022/04/11 03:44:10;;;;;;;9.50;7.28;;;5.30;99.90;;;;;;5052125;28;20024;-76
2022/04/11 03:46:39;;;;;;;10.48;6.65;;;5.30;99.90;;;;;;5052929;28;20104;-76
2022/04/11 03:49:06;;;;;;;9.77;6.95;;;5.30;99.90;;;;;;5052833;28;20025;-76
2022/04/11 03:51:32;;;;;;;10.77;7.15;;;5.30;99.90;;;;;;5054425;28;20029;-76
2022/04/11 03:53:57;;;;;;;10.30;7.47;;;5.30;99.90;;;;;;5055119;28;20035;-76
2022/04/11 03:56:23;;;;;;;10.10;7.60;;;5.30;99.90;;;;;;5052541;28;20029;-76
2022/04/11 03:58:48;;;;;;;8.40;7.45;;;5.30;99.90;;;;;;5057224;28;20048;-76
2022/04/11 04:01:14;;;;;;;8.90;7.93;;;5.30;99.90;;;;;;5052646;28;20025;-76
2022/04/11 04:03:40;;;;;;;8.30;7.50;;;5.30;99.90;;;;;;5052677;28;20018;-76
2022/04/11 04:06:06;;;;;;;12.93;7.57;;;5.30;99.90;;;;;;5051982;28;20041;-77
2022/04/11 04:08:32;;;;;;;11.55;7.97;;;5.30;99.90;;;;;;5052407;28;20040;-76
2022/04/11 04:10:57;;;;;;;8.15;6.75;;;5.20;99.90;;;;;;5052386;28;20127;-76
2022/04/11 04:13:25;;;;;;;11.55;8.05;;;5.20;99.90;;;;;;5051577;28;20055;-76
2022/04/11 04:15:50;;;;;;;15.15;9.27;;;5.20;99.90;;;;;;5052518;28;20025;-75
2022/04/11 04:18:16;;;;;;;12.85;7.40;;;5.20;99.90;;;;;;5050831;28;20492;-76
2022/04/11 04:20:42;;;;;;;12.32;7.93;;;5.20;99.90;;;;;;5051888;28;20024;-77
2022/04/11 04:23:07;;;;;;;8.63;7.35;;;5.20;99.90;;;;;;5052279;28;20025;-77
2022/04/11 04:25:34;;;;;;;10.18;8.98;;;5.30;99.90;;;;;;5052066;28;20480;-76
2022/04/11 04:28:00;;;;;;;9.52;7.43;;;5.20;99.90;;;;;;5067603;28;20035;-76
2022/04/11 04:30:26;;;;;;;11.18;8.88;;;5.20;99.90;;;;;;5051706;28;20029;-76
2022/04/11 04:32:52;;;;;;;10.13;8.25;;;5.20;99.90;;;;;;5051200;28;20036;-75
2022/04/11 04:35:18;;;;;;;12.13;8.27;;;5.20;99.90;;;;;;5052112;28;20036;-76
2022/04/11 04:37:43;;;;;;;15.30;8.13;;;5.20;99.90;;;;;;5052130;28;20028;-76
2022/04/11 04:40:10;;;;;;;14.55;8.27;;;5.20;99.90;;;;;;5051232;28;20029;-77
2022/04/11 04:42:36;;;;;;;12.07;8.15;;;5.20;99.90;;;;;;5051972;28;20028;-76
2022/04/11 04:45:01;;;;;;;20.13;9.65;;;5.20;99.90;;;;;;5051198;28;20036;-77
2022/04/11 04:47:27;;;;;;;11.52;8.60;;;5.10;99.90;;;;;;5053911;28;20025;-77
2022/04/11 04:49:52;;;;;;;15.15;9.77;;;5.10;99.90;;;;;;5053448;28;20021;-76
2022/04/11 04:52:21;;;;;;;14.25;8.95;;;5.10;99.90;;;;;;5052356;28;20028;-76
2022/04/11 04:54:46;;;;;;;16.70;8.65;;;5.10;99.90;;;;;;5052099;28;20021;-77
2022/04/11 04:57:12;;;;;;;14.93;8.60;;;5.10;99.90;;;;;;5051861;28;20124;-76
2022/04/11 04:59:37;;;;;;;14.57;8.18;;;5.10;99.90;;;;;;5052273;28;20022;-76
2022/04/11 05:02:03;;;;;;;12.40;9.32;;;5.10;99.90;;;;;;5051443;28;20067;-79
2022/04/11 05:04:32;;;;;;;15.00;9.20;;;5.10;99.90;;;;;;5051843;28;20064;-77
2022/04/11 05:06:57;;;;;;;15.90;9.25;;;5.10;99.90;;;;;;5063040;28;20056;-76
2022/04/11 05:09:23;;;;;;;18.40;9.30;;;5.10;99.90;;;;;;5070729;28;20067;-77
2022/04/11 05:11:51;;;;;;;16.02;9.77;;;5.10;99.90;;;;;;5071777;28;20028;-75
2022/04/11 05:14:17;;;;;;;14.38;9.68;;;5.10;99.90;;;;;;5071510;28;20024;-77
2022/04/11 05:16:42;;;;;;;15.30;11.40;;;5.00;99.90;;;;;;5071261;28;20033;-77
2022/04/11 05:19:08;;;;;;;13.65;9.95;;;5.10;99.90;;;;;;5071533;28;20051;-77
2022/04/11 05:21:33;;;;;;;15.50;10.10;;;5.10;99.90;;;;;;5071784;28;20017;-78
2022/04/11 05:23:59;;;;;;;17.92;10.13;;;5.00;99.90;;;;;;5071113;28;20060;-77
2022/04/11 05:26:24;;;;;;;13.55;9.13;;;5.10;99.90;;;;;;5053480;28;20021;-76
2022/04/11 05:28:50;;;;;;;23.10;11.05;;;5.10;99.90;;;;;;5050083;28;20028;-78
2022/04/11 05:31:17;;;;;;;13.57;10.02;;;5.10;99.90;;;;;;5049312;28;20462;-76
2022/04/11 05:33:43;;;;;;;16.42;10.85;;;5.10;99.90;;;;;;5058329;28;20067;-76
2022/04/11 05:36:08;;;;;;;12.50;10.57;;;5.10;99.90;;;;;;5053042;28;20021;-76
2022/04/11 05:38:34;;;;;;;21.23;10.57;;;5.10;99.90;;;;;;5053412;28;20021;-76
2022/04/11 05:41:00;;;;;;;15.90;10.65;;;5.20;99.90;;;;;;5050347;28;20118;-75
2022/04/11 05:43:25;;;;;;;19.35;10.38;;;5.20;99.90;;;;;;5049346;28;20014;-76
2022/04/11 05:45:53;;;;;;;15.43;10.57;;;5.30;99.90;;;;;;5049760;28;20013;-76
2022/04/11 05:48:19;;;;;;;14.05;10.38;;;5.20;99.90;;;;;;5049868;28;20086;-76
2022/04/11 05:50:44;;;;;;;21.25;10.98;;;5.30;99.90;;;;;;5049197;28;20029;-75
2022/04/11 05:53:10;;;;;;;20.85;11.30;;;5.40;99.90;;;;;;5053934;28;20025;-76
2022/04/11 05:55:35;;;;;;;16.95;11.32;;;5.40;99.90;;;;;;5049486;28;20025;-77
2022/04/11 05:58:01;;;;;;;13.93;10.25;;;5.50;99.90;;;;;;5052186;28;20389;-77
2022/04/11 06:00:27;;;;;;;15.43;11.77;;;5.60;99.90;;;;;;5052809;28;20405;-77
2022/04/11 06:02:53;;;;;;;18.25;11.10;;;5.60;99.90;;;;;;5053156;28;20029;-76
2022/04/11 06:05:18;;;;;;;15.32;10.70;;;5.70;99.90;;;;;;5051957;28;20112;-77
2022/04/11 06:07:44;;;;;;;16.65;10.88;;;5.70;99.90;;;;;;5065023;28;20056;-76
2022/04/11 06:10:10;;;;;;;16.27;11.13;;;5.80;99.90;;;;;;5070523;28;20029;-76
2022/04/11 06:12:36;;;;;;;16.52;11.27;;;5.90;99.90;;;;;;5072768;28;20461;-75
2022/04/11 06:15:03;;;;;;;13.15;11.70;;;5.90;99.90;;;;;;5072841;28;20052;-77
2022/04/11 06:17:28;;;;;;;12.55;10.10;;;5.90;99.90;;;;;;5065317;28;20511;-76
2022/04/11 06:19:56;;;;;;;16.83;10.98;;;6.00;99.90;;;;;;5053307;28;20029;-76
2022/04/11 06:22:22;;;;;;;17.73;11.23;;;6.10;99.90;;;;;;5055950;28;20025;-76
2022/04/11 06:24:49;;;;;;;12.65;11.35;;;6.20;99.90;;;;;;5070626;28;20017;-76
2022/04/11 06:27:15;;;;;;;15.13;11.77;;;6.30;99.90;;;;;;5073001;28;20115;-77
2022/04/11 06:29:41;;;;;;;19.35;12.07;;;7.50;99.90;;;;;;5072478;28;20025;-76
2022/04/11 06:32:07;;;;;;;16.60;10.98;;;6.50;99.90;;;;;;5053215;28;20159;-75
2022/04/11 06:34:34;;;;;;;13.05;11.10;;;6.60;99.90;;;;;;5070173;28;20488;-72
2022/04/11 06:36:59;;;;;;;13.55;10.82;;;6.70;99.90;;;;;;5072306;28;20097;-74
2022/04/11 06:39:25;;;;;;;15.20;12.48;;;6.80;99.90;;;;;;5071267;28;20103;-75
2022/04/11 06:41:51;;;;;;;16.27;11.93;;;6.90;99.90;;;;;;5071814;28;20043;-74
2022/04/11 06:44:16;;;;;;;17.65;12.13;;;7.00;99.90;;;;;;5061763;28;20527;-73
2022/04/11 06:46:42;;;;;;;12.85;11.50;;;7.10;99.90;;;;;;5051121;28;20079;-75
2022/04/11 06:49:08;;;;;;;17.30;12.82;;;7.30;99.90;;;;;;5052279;28;20029;-74
2022/04/11 06:51:33;;;;;;;14.40;11.60;;;7.40;99.90;;;;;;5052783;28;20060;-74
2022/04/11 06:53:59;;;;;;;14.70;11.63;;;7.50;99.90;;;;;;5069704;28;20025;-74
2022/04/11 06:56:25;;;;;;;20.50;11.75;;;7.60;99.90;;;;;;5073574;28;20484;-73
2022/04/11 06:58:51;;;;;;;14.35;12.32;;;7.70;99.90;;;;;;5073864;28;20476;-73
2022/04/11 07:01:16;;;;;;;15.32;10.50;;;7.80;99.90;;;;;;5072695;28;20080;-74
2022/04/11 07:03:42;;;;;;;14.88;11.00;;;7.80;99.90;;;;;;5073854;28;20021;-75
2022/04/11 07:06:08;;;;;;;13.18;11.18;;;7.80;99.90;;;;;;5073781;28;20036;-73
2022/04/11 07:08:34;;;;;;;12.15;10.07;;;7.80;99.90;;;;;;5071883;28;20044;-74
2022/04/11 07:11:00;;;;;;;14.07;10.77;;;7.80;99.90;;;;;;5072350;28;20039;-72
2022/04/11 07:13:26;;;;;;;12.60;11.30;;;7.80;99.90;;;;;;5073322;28;20392;-73
2022/04/11 07:15:52;;;;;;;17.80;12.50;;;7.80;99.90;;;;;;5067769;28;20477;-74
2022/04/11 07:18:19;;;;;;;13.43;11.70;;;7.90;99.90;;;;;;5052500;28;20043;-76
2022/04/11 07:20:45;;;;;;;16.95;11.82;;;7.90;99.90;;;;;;5052861;28;20480;-75
2022/04/11 07:23:11;;;;;;;13.20;11.07;;;8.00;99.90;;;;;;5052044;28;20149;-76
2022/04/11 07:25:37;;;;;;;12.88;11.63;;;8.00;99.90;;;;;;5052698;28;20539;-77
2022/04/11 07:28:03;;;;;;;25.40;12.93;;;8.10;99.90;;;;;;5060055;28;20035;-75
2022/04/11 07:30:28;;;;;;;14.10;12.23;;;8.20;99.90;;;;;;5070904;28;20060;-75
2022/04/11 07:32:54;;;;;;;14.25;12.65;;;8.30;99.90;;;;;;5069354;28;20052;-75
2022/04/11 07:35:19;;;;;;;21.15;12.25;;;8.40;99.90;;;;;;5070160;28;20028;-74
2022/04/11 07:37:45;;;;;;;14.68;11.48;;;8.40;99.90;;;;;;5073315;28;20017;-74
2022/04/11 07:40:11;;;;;;;13.07;11.40;;;8.50;99.90;;;;;;5072835;28;20040;-75
2022/04/11 07:42:37;;;;;;;13.57;11.50;;;8.50;99.90;;;;;;5069582;28;20040;-74
2022/04/11 07:45:03;;;;;;;15.73;11.93;;;8.50;99.90;;;;;;5070872;28;20027;-76
2022/04/11 07:47:28;;;;;;;12.88;10.77;;;8.50;99.90;;;;;;5069621;28;20476;-79
2022/04/11 07:49:54;;;;;;;13.05;11.35;;;8.60;99.90;;;;;;5069042;28;20030;-77
2022/04/11 07:52:21;;;;;;;15.30;12.65;;;8.70;99.90;;;;;;5070096;28;20515;-76
2022/04/11 07:54:49;;;;;;;16.55;12.13;;;8.70;99.90;;;;;;5070261;28;20435;-76
2022/04/11 07:57:16;;;;;;;14.35;11.77;;;8.80;99.90;;;;;;5068887;28;20033;-75
2022/04/11 07:59:41;;;;;;;18.15;12.25;;;8.80;99.90;;;;;;5069763;28;20119;-76
2022/04/11 08:02:07;;;;;;;14.35;12.85;;;8.90;99.90;;;;;;5071773;28;20528;-77
2022/04/11 08:04:33;;;;;;;12.75;11.15;;;9.00;99.90;;;;;;5071854;28;20115;-76
2022/04/11 08:06:59;;;;;;;22.05;11.57;;;9.10;99.90;;;;;;5068266;28;20036;-76
2022/04/11 08:09:25;;;;;;;15.73;11.25;;;9.20;99.90;;;;;;5070319;28;20162;-74
2022/04/11 08:11:51;;;;;;;17.52;11.20;;;9.30;99.90;;;;;;5070056;28;20074;-75
2022/04/11 08:14:16;;;;;;;15.38;10.65;;;9.40;99.90;;;;;;5070653;28;20919;-75
2022/04/11 08:16:42;;;;;;;14.15;9.98;;;9.40;99.90;;;;;;5070595;28;20024;-74
2022/04/11 08:19:10;;;;;;;13.80;9.52;;;9.60;99.90;;;;;;5066778;28;20093;-75
2022/04/11 08:21:37;;;;;;;13.57;9.57;;;9.70;99.90;;;;;;5069144;28;20023;-73
2022/04/11 08:24:03;;;;;;;12.45;8.27;;;9.70;99.90;;;;;;5069920;28;20144;-73
2022/04/11 08:26:28;;;;;;;15.52;9.45;;;9.80;99.90;;;;;;5068848;28;20182;-73
2022/04/11 08:28:54;;;;;;;11.85;9.68;;;9.90;99.90;;;;;;5070858;28;20512;-73
2022/04/11 08:31:20;;;;;;;14.85;9.77;;;10.00;99.90;;;;;;5069778;28;20032;-74
2022/04/11 08:33:45;;;;;;;12.52;9.10;;;10.00;99.90;;;;;;5068889;28;20025;-73
2022/04/11 08:36:11;;;;;;;13.05;9.63;;;10.10;99.90;;;;;;5069914;28;20032;-75
2022/04/11 08:38:37;;;;;;;9.35;8.35;;;10.20;99.90;;;;;;5070002;28;20108;-74
2022/04/11 08:41:03;;;;;;;10.48;8.27;;;10.30;99.90;;;;;;5070125;28;20032;-75
2022/04/11 08:43:32;;;;;;;10.15;8.52;;;10.30;99.90;;;;;;5069777;28;20085;-73
2022/04/11 08:46:02;;;;;;;9.82;8.18;;;10.40;99.90;;;;;;5069147;28;20028;-77
2022/04/11 08:48:28;;;;;;;10.30;6.90;;;10.50;99.90;;;;;;5068970;28;20468;-75
2022/04/11 08:50:53;;;;;;;10.30;6.78;;;10.50;99.90;;;;;;5067589;28;20121;-75
2022/04/11 08:53:21;;;;;;;8.23;6.82;;;10.60;99.90;;;;;;5067435;28;20036;-75
2022/04/11 08:55:50;;;;;;;8.63;6.65;;;10.70;99.90;;;;;;5069254;28;20044;-75
2022/04/11 08:58:16;;;;;;;8.23;6.38;;;10.80;99.90;;;;;;5068601;28;20052;-74
2022/04/11 09:00:42;;;;;;;7.85;5.78;;;10.90;99.90;;;;;;5068814;28;20477;-75
2022/04/11 09:03:08;;;;;;;8.98;6.20;;;11.00;99.90;;;;;;5069101;28;20020;-76
2022/04/11 09:05:34;;;;;;;12.00;6.90;;;11.10;99.90;;;;;;5069265;28;20029;-76
2022/04/11 09:08:00;;;;;;;7.38;6.63;;;11.20;99.90;;;;;;5068713;28;20078;-76
2022/04/11 09:10:32;;;;;;;8.82;5.95;;;11.30;99.90;;;;;;5070243;28;20048;-75
2022/04/11 09:13:02;;;;;;;8.52;5.93;;;11.30;99.90;;;;;;5069243;28;20032;-76
2022/04/11 09:15:28;;;;;;;5.90;5.40;;;11.40;99.90;;;;;;5066197;28;20031;-75
2022/04/11 09:17:56;;;;;;;6.20;5.55;;;11.60;99.90;;;;;;5067881;28;20024;-75
2022/04/11 09:20:25;;;;;;;6.57;5.40;;;11.60;99.90;;;;;;5068133;28;20033;-76
2022/04/11 09:22:51;;;;;;;6.22;5.68;;;11.70;99.90;;;;;;5067907;28;20025;-76
2022/04/11 09:25:22;;;;;;;10.80;6.72;;;11.80;99.90;;;;;;5068357;28;20039;-76
2022/04/11 09:28:02;;;;;;;9.30;5.20;;;11.90;99.90;;;;;;5067315;28;20626;-76
2022/04/11 09:30:31;;;;;;;6.28;5.40;;;11.90;99.90;;;;;;5066242;28;20033;-75
2022/04/11 09:32:56;;;;;;;6.97;5.95;;;12.00;99.90;;;;;;5071948;28;20043;-76
2022/04/11 09:35:23;;;;;;;6.82;5.07;;;12.10;99.90;;;;;;5071586;28;20484;-75
2022/04/11 09:38:08;;;;;;;7.03;4.53;;;12.20;99.60;;;;;;5073275;28;20020;-76
2022/04/11 09:40:48;;;;;;;7.75;4.57;;;12.30;98.90;;;;;;5071840;28;20383;-75
2022/04/11 09:43:15;;;;;;;7.78;4.63;;;12.30;98.30;;;;;;5071467;28;20017;-75
2022/04/11 09:45:43;;;;;;;4.63;4.22;;;12.50;98.40;;;;;;5075330;28;20073;-75
2022/04/11 09:48:10;;;;;;;7.60;4.93;;;12.40;98.20;;;;;;5068717;28;20059;-76
2022/04/11 09:50:36;;;;;;;5.43;4.25;;;12.50;97.60;;;;;;5064060;28;20036;-77
2022/04/11 09:53:34;;;;;;;7.72;3.97;;;12.60;97.30;;;;;;5069144;28;20024;-75
2022/04/11 09:56:08;;;;;;;5.30;4.07;;;12.50;96.40;;;;;;5068574;28;20111;-75
2022/04/11 09:58:35;;;;;;;10.23;4.60;;;12.60;97.40;;;;;;5071446;28;20105;-75
2022/04/11 10:01:02;;;;;;;8.20;6.18;;;12.60;97.60;;;;;;5067027;28;20052;-74
2022/04/11 10:03:29;;;;;;;7.65;5.30;;;12.60;96.20;;;;;;5068984;28;20024;-75
2022/04/11 10:05:56;;;;;;;5.85;5.35;;;12.70;96.30;;;;;;5059238;28;20029;-75
2022/04/11 10:08:25;;;;;;;6.43;5.28;;;12.60;96.20;;;;;;5073869;28;20051;-76
2022/04/11 10:10:51;;;;;;;6.13;5.35;;;12.70;96.10;;;;;;5066038;28;20040;-76
2022/04/11 10:13:17;;;;;;;8.73;4.85;;;12.80;95.40;;;;;;5060062;28;20017;-76
2022/04/11 10:15:46;;;;;;;8.85;5.38;;;12.80;93.90;;;;;;5060596;28;20029;-77
2022/04/11 10:18:15;;;;;;;9.98;5.63;;;12.80;94.20;;;;;;5068499;28;20020;-78
2022/04/11 10:20:46;;;;;;;7.07;6.38;;;12.90;95.30;;;;;;5074025;28;20025;-77
2022/04/11 10:23:18;;;;;;;13.45;5.95;;;12.90;95.10;;;;;;5063055;28;20090;-77
2022/04/11 10:25:50;;;;;;;7.90;5.25;;;13.00;94.50;;;;;;5069320;28;20075;-75
2022/04/11 10:28:24;;;;;;;5.38;4.88;;;13.00;94.00;;;;;;5069197;28;20055;-76
2022/04/11 10:31:10;;;;;;;6.43;5.00;;;13.00;93.70;;;;;;5069098;28;20119;-76
2022/04/11 10:33:48;;;;;;;7.43;5.68;;;13.00;92.90;;;;;;5069633;28;20082;-77
2022/04/11 10:36:28;;;;;;;7.00;4.28;;;13.00;92.50;;;;;;5070984;28;20016;-77
2022/04/11 10:39:22;;;;;;;5.55;5.03;;;13.10;92.40;;;;;;5070555;28;20024;-76
2022/04/11 10:41:57;;;;;;;10.18;5.93;;;13.20;91.70;;;;;;5069724;28;20102;-76
2022/04/11 10:44:58;;;;;;;6.47;5.15;;;13.20;91.90;;;;;;5071117;28;20028;-78
2022/04/11 10:47:30;;;;;;;6.80;5.10;;;13.30;92.50;;;;;;5071670;28;20124;-77
2022/04/11 10:50:07;;;;;;;6.18;4.68;;;13.30;91.30;;;;;;5071924;28;20477;-76
2022/04/11 10:52:35;;;;;;;7.38;4.88;;;13.40;90.90;;;;;;5071284;28;20024;-76
2022/04/11 10:55:11;;;;;;;9.88;5.43;;;13.50;91.40;;;;;;5071305;28;20019;-77
2022/04/11 10:57:41;;;;;;;7.25;5.03;;;13.50;91.60;;;;;;5071625;28;20025;-77
2022/04/11 11:00:17;;;;;;;7.60;4.80;;;13.50;91.60;;;;;;5070661;28;20388;-77
2022/04/11 11:02:52;;;;;;;5.63;5.03;;;13.60;91.10;;;;;;5068120;28;20512;-76
2022/04/11 11:05:37;;;;;;;5.10;4.65;;;13.60;90.40;;;;;;5070711;28;20086;-77
2022/04/11 11:08:09;;;;;;;8.70;5.60;;;13.70;91.10;;;;;;5072435;28;20060;-76
2022/04/11 11:10:46;;;;;;;5.65;5.10;;;13.80;90.20;;;;;;5071115;28;20020;-76
2022/04/11 11:13:30;;;;;;;8.25;5.18;;;13.90;90.20;;;;;;5073537;28;20599;-77
2022/04/11 11:16:08;;;;;;;8.20;5.35;;;13.90;91.00;;;;;;5075963;28;20019;-77
2022/04/11 11:19:02;;;;;;;6.57;4.85;;;13.90;90.30;;;;;;5073605;28;20047;-77
2022/04/11 11:21:28;;;;;;;6.93;4.90;;;13.90;89.30;;;;;;5070537;28;20021;-77
2022/04/11 11:24:12;;;;;;;6.05;5.22;;;14.00;89.30;;;;;;5073125;28;20112;-75
2022/04/11 11:26:52;;;;;;;9.20;5.72;;;14.00;87.80;;;;;;5061453;28;20018;-77
2022/04/11 11:29:24;;;;;;;5.70;5.03;;;14.10;88.20;;;;;;5070586;28;20039;-76
2022/04/11 11:31:55;;;;;;;5.57;4.70;;;14.20;90.00;;;;;;5073361;28;20404;-75
2022/04/11 11:34:23;;;;;;;7.40;5.45;;;14.20;89.30;;;;;;5072999;28;20033;-74
2022/04/11 11:36:49;;;;;;;5.78;5.15;;;14.10;87.60;;;;;;5070168;28;20107;-75
2022/04/11 11:39:17;;;;;;;6.93;4.70;;;14.20;89.00;;;;;;5073070;28;20386;-74
2022/04/11 11:41:47;;;;;;;8.90;5.35;;;14.20;87.20;;;;;;5052393;28;20502;-77
2022/04/11 11:44:13;;;;;;;11.97;5.40;;;14.30;87.90;;;;;;5069326;28;20393;-75
2022/04/11 11:46:53;;;;;;;5.60;4.80;;;14.40;88.60;;;;;;5067250;28;20279;-74
2022/04/11 11:49:23;;;;;;;9.25;5.05;;;14.40;88.50;;;;;;5065605;28;20021;-76
2022/04/11 11:51:50;;;;;;;5.35;4.85;;;14.40;87.80;;;;;;5070787;28;20063;-76
2022/04/11 11:54:34;;;;;;;5.38;4.97;;;14.40;87.30;;;;;;5067607;28;20032;-76
2022/04/11 11:57:00;;;;;;;6.57;5.68;;;14.40;87.00;;;;;;5073153;28;20112;-75
2022/04/11 11:59:26;;;;;;;8.73;6.03;;;14.50;87.00;;;;;;5073185;28;20024;-76
2022/04/11 12:04:40;;;;;;;7.25;5.43;;;14.50;88.50;;;;;;5071146;28;20046;-76
2022/04/11 12:07:06;;;;;;;6.25;5.70;;;14.70;86.40;;;;;;5078818;28;20025;-74
2022/04/11 12:09:39;;;;;;;9.77;5.85;;;14.70;85.40;;;;;;5066843;28;20040;-75
2022/04/11 12:12:06;;;;;;;7.22;5.75;;;14.70;85.40;;;;;;5073605;28;20519;-74
2022/04/11 12:15:02;;;;;;;6.45;5.85;;;14.80;86.30;;;;;;5073024;28;20019;-74
2022/04/11 12:17:40;;;;;;;9.32;5.70;;;14.90;85.10;;;;;;5070949;28;20024;-74
2022/04/11 12:20:17;;;;;;;8.07;5.30;;;14.90;85.20;;;;;;5073181;28;20036;-75
2022/04/11 12:23:02;;;;;;;9.05;6.03;;;15.00;87.00;;;;;;5073162;28;20036;-75
2022/04/11 12:25:38;;;;;;;11.85;6.75;;;15.10;85.20;;;;;;5072018;28;20399;-75
2022/04/11 12:28:21;;;;;;;6.70;5.82;;;15.10;84.30;;;;;;5074361;28;20355;-74
2022/04/11 12:30:49;;;;;;;9.50;5.72;;;15.20;85.50;;;;;;5072914;28;20085;-74
2022/04/11 12:33:30;;;;;;;7.68;5.55;;;15.30;83.20;;;;;;5065149;28;20021;-74
2022/04/11 12:36:09;;;;;;;8.43;5.93;;;15.30;82.70;;;;;;5072679;28;20542;-74
2022/04/11 12:38:51;;;;;;;7.55;6.03;;;15.30;82.70;;;;;;5070186;28;20024;-74
2022/04/11 12:41:36;;;;;;;8.27;5.70;;;15.30;82.80;;;;;;5072598;28;20034;-75
2022/04/11 12:44:12;;;;;;;7.75;6.43;;;15.30;82.20;;;;;;5073969;28;20039;-75
2022/04/11 12:46:40;;;;;;;6.70;5.43;;;15.40;83.60;;;;;;5070513;28;20029;-73
2022/04/11 12:49:07;;;;;;;7.47;5.65;;;15.40;82.00;;;;;;5065783;28;20027;-74
2022/04/11 12:51:33;;;;;;;12.90;7.22;;;15.50;82.40;;;;;;5072813;28;20051;-74
2022/04/11 12:54:03;;;;;;;6.90;5.75;;;15.50;80.90;;;;;;5058769;28;20013;-74